Pagrindinis puslapis
METAR-TAF:

METAR-TAF

Oro uostai :

Ronebis, Švedija

platuma: 56-16N, ilguma: 015-17E, Aukštis: 58 m

Dabartinis oras

Ataskaita buvo paskelbta 40 minutes, ne 02:20 UTC
Vėjas 5 kt iš Šiaurės/Šiaurės Rytų
Temperatūra 8°C
Drėgmė 93%
Slėgis 1020 hPa
Matomumas 10 km arba daugiau

METAR: ESDF 170220Z AUTO 02005KT 9999 NCD 08/07 Q1020

Laikas: 05:00 (03:00 UTC)

Prognozė

Ataskaita buvo paskelbta 12 valandos ir 30 minutes, ne 14:30 UTC
Prognozė galioja nuo 16 metu 15 UTC su 16 metu 19 UTC
Vėjas 9 kt iš Pietų/Pietvakarių
Matomumas 10 km arba daugiau
nėra debesų žemiau 1500 m ir nėra kamuolinių lietaus debesų

TAF: ESDF 161430Z 1615/1619 21009KT CAVOK

Orai ataskaitas ir orų prognozės (METAR, TAF).

turimą stotys yra geltonos ir raudonos taškus žemėlapyje.

Perkelti pele per norėdami pamatyti stoties vardą.

Tada spustelėkite, norėdami matyti oro stebėjimo ir prognozės.

Norėdami pakeisti žemėlapį: spustelėkite ant žalios mygtukų su juodo kryžiaus žemyn,; žalią mygtuką su brūkšneliu, jei norite nutolinti; arba žalių rodyklių gretimoms žemėlapius.


METAR-TAF: